Elk River, Minnesota
Current Conditions -  °F | °C
As of 10:14 PM on Wednesday 28 Jan 2015 (Local Time) from KPNM Reporting Station
Haze Haze  
Wind Chill: 30°   Ceiling: 200
Heat Index: 30°   Visibility: 1.2mi
Dew Point: 28°   Wind: 3mph
Humidity: 93%   Direction: 300°WNW
Pressure: 29.86"   Gusts: NA
Location:  45.31°N, 93.57°W
Report Text: KPNM 290414Z AUTO 30003KT 1 1/4SM BR OVC002 M01/M02 A2986 RMK AO2
Loading
Personal Weather Stations






























Interactive Weather Map New forecast layout! Learn more

10-Day Weather Forecast

Advertisements
Track Severe Weather on mobile